Time;durP1;ratioP1;P1;durP2;ratioP2;P2;SDS_P1;SDS_P2;PMS_P1;PMS_P2;Temp;Humidity;BMP_temperature;BMP_pressure;BME280_temperature;BME280_humidity;BME280_pressure;Samples;Min_cycle;Max_cycle;Signal;HPM_P1;HPM_P2
2021/06/12 00:00:57;;;;;;;7.72;3.67;;;;;;;16.23;100.00;101940.34;5259638;28;20020;-82
2021/06/12 00:03:28;;;;;;;6.78;3.33;;;;;;;16.27;100.00;101947.09;5276733;28;20069;-82
2021/06/12 00:05:58;;;;;;;6.90;3.72;;;;;;;16.24;100.00;101942.03;5277019;28;20036;-82
2021/06/12 00:08:29;;;;;;;6.93;3.13;;;;;;;16.20;100.00;101943.41;5258787;28;20020;-83
2021/06/12 00:11:01;;;;;;;10.02;3.63;;;;;;;16.16;100.00;101943.91;5277398;28;20031;-83
2021/06/12 00:13:31;;;;;;;5.80;3.50;;;;;;;16.16;100.00;101942.06;5276573;28;20024;-83
2021/06/12 00:16:02;;;;;;;8.82;3.58;;;;;;;16.11;100.00;101939.03;5277034;28;20027;-82
2021/06/12 00:18:32;;;;;;;4.95;2.72;;;;;;;16.07;100.00;101932.31;5258861;28;20035;-83
2021/06/12 00:21:03;;;;;;;7.82;3.55;;;;;;;16.09;100.00;101935.66;5277539;28;20019;-82
2021/06/12 00:23:34;;;;;;;5.53;3.30;;;;;;;16.06;100.00;101936.00;5277471;28;20166;-83
2021/06/12 00:26:04;;;;;;;5.25;3.17;;;;;;;16.06;100.00;101933.31;5277715;28;20038;-82
2021/06/12 00:28:37;;;;;;;5.10;2.75;;;;;;;16.13;100.00;101942.44;5277124;28;20050;-82
2021/06/12 00:31:08;;;;;;;8.60;3.10;;;;;;;16.11;100.00;101940.91;5267461;28;20031;-82
2021/06/12 00:33:38;;;;;;;5.07;3.45;;;;;;;16.11;100.00;101943.59;5277983;28;20225;-82
2021/06/12 00:36:09;;;;;;;6.25;3.20;;;;;;;16.16;100.00;101943.91;5277788;28;20012;-82
2021/06/12 00:38:40;;;;;;;5.25;3.25;;;;;;;16.10;100.00;101940.06;5277937;28;20024;-82
2021/06/12 00:41:11;;;;;;;5.22;3.58;;;;;;;16.10;100.00;101937.34;5277871;28;20483;-82
2021/06/12 00:43:42;;;;;;;5.47;2.85;;;;;;;16.04;100.00;101928.06;5277111;28;20376;-82
2021/06/12 00:46:13;;;;;;;7.93;2.72;;;;;;;16.15;100.00;101932.25;5259214;28;20016;-82
2021/06/12 00:48:44;;;;;;;5.28;3.00;;;;;;;16.14;100.00;101930.56;5276873;28;20031;-82
2021/06/12 00:51:15;;;;;;;5.72;3.10;;;;;;;16.21;100.00;101923.41;5279003;28;20023;-83
2021/06/12 00:53:45;;;;;;;4.10;2.80;;;;;;;16.23;100.00;101929.53;5258396;28;20034;-83
2021/06/12 00:56:18;;;;;;;6.45;2.95;;;;;;;16.19;100.00;101933.59;5260087;28;20042;-82
2021/06/12 00:58:50;;;;;;;6.00;3.15;;;;;;;16.17;100.00;101930.22;5264151;28;20019;-82
2021/06/12 01:01:21;;;;;;;6.13;2.95;;;;;;;16.18;100.00;101928.38;5276950;28;20073;-82
2021/06/12 01:03:52;;;;;;;4.43;2.60;;;;;;;16.17;100.00;101923.97;5277718;28;20083;-82
2021/06/12 01:06:22;;;;;;;4.38;2.92;;;;;;;16.12;100.00;101920.97;5259839;28;20051;-83
2021/06/12 01:08:53;;;;;;;7.38;3.67;;;;;;;16.04;100.00;101917.25;5277451;28;20356;-82
2021/06/12 01:11:23;;;;;;;6.97;3.03;;;;;;;15.99;100.00;101908.81;5278124;28;20083;-82
2021/06/12 01:14:18;;;;;;;4.88;2.63;;;;;;;16.01;100.00;101914.91;5263631;28;20063;-82
2021/06/12 01:17:03;;;;;;;4.00;2.83;;;;;;;15.91;100.00;101918.81;5277521;28;20032;-83
2021/06/12 01:19:59;;;;;;;4.93;2.95;;;;;;;15.88;100.00;101920.03;5276930;28;20509;-82
2021/06/12 01:22:47;;;;;;;7.35;3.28;;;;;;;15.92;100.00;101921.38;5277638;28;20020;-82
2021/06/12 01:25:26;;;;;;;7.75;3.08;;;;;;;15.85;100.00;101923.06;5278842;28;20023;-82
2021/06/12 01:28:00;;;;;;;5.05;3.00;;;;;;;15.86;100.00;101921.22;5277724;28;20065;-82
2021/06/12 01:30:33;;;;;;;4.97;2.88;;;;;;;15.85;100.00;101917.66;5276791;28;20028;-83
2021/06/12 01:33:12;;;;;;;7.03;3.25;;;;;;;15.86;100.00;101919.34;5259035;28;20139;-83
2021/06/12 01:35:45;;;;;;;7.78;3.70;;;;;;;15.83;100.00;101921.59;5277428;28;20024;-83
2021/06/12 01:38:19;;;;;;;6.43;3.22;;;;;;;15.71;100.00;101924.66;5275759;28;20023;-82
2021/06/12 01:40:55;;;;;;;6.90;3.33;;;;;;;15.70;100.00;101935.63;5257999;28;20020;-83
2021/06/12 01:43:27;;;;;;;5.17;3.20;;;;;;;15.64;100.00;101928.22;5276474;28;20048;-82
2021/06/12 01:45:58;;;;;;;8.52;3.30;;;;;;;15.60;100.00;101934.97;5276852;28;20054;-82
2021/06/12 01:48:30;;;;;;;5.80;3.42;;;;;;;15.51;100.00;101936.84;5276088;28;20024;-82
2021/06/12 01:51:05;;;;;;;7.22;3.47;;;;;;;15.42;100.00;101932.47;5276631;28;20424;-83
2021/06/12 01:53:38;;;;;;;6.53;3.40;;;;;;;15.32;100.00;101935.38;5275759;28;20024;-82
2021/06/12 01:56:11;;;;;;;7.10;3.10;;;;;;;15.28;100.00;101945.66;5275489;28;20321;-82
2021/06/12 01:58:43;;;;;;;7.85;3.58;;;;;;;15.24;100.00;101941.59;5289735;28;20024;-82
2021/06/12 02:01:17;;;;;;;9.20;3.97;;;;;;;15.31;100.00;101944.47;5275687;28;20541;-82
2021/06/12 02:03:48;;;;;;;9.05;3.95;;;;;;;15.32;100.00;101946.19;5256826;28;20027;-83
2021/06/12 02:06:20;;;;;;;8.80;4.05;;;;;;;15.47;100.00;101949.03;5276074;28;20483;-82
2021/06/12 02:08:52;;;;;;;12.02;3.75;;;;;;;15.45;100.00;101946.47;5257943;28;20026;-82
2021/06/12 02:11:26;;;;;;;8.50;4.15;;;;;;;15.33;100.00;101955.97;5275118;28;20031;-82
2021/06/12 02:13:57;;;;;;;8.77;4.43;;;;;;;15.35;100.00;101953.09;5274778;28;20484;-82
2021/06/12 02:16:28;;;;;;;7.05;4.32;;;;;;;15.25;100.00;101955.97;5258147;28;20027;-82
2021/06/12 02:18:59;;;;;;;7.35;3.72;;;;;;;15.26;100.00;101949.53;5275782;28;20031;-82
2021/06/12 02:21:33;;;;;;;8.38;4.63;;;;;;;15.23;100.00;101953.44;5275974;28;20422;-82
2021/06/12 02:24:05;;;;;;;10.82;5.15;;;;;;;15.18;100.00;101949.56;5275460;28;20115;-83
2021/06/12 02:26:44;;;;;;;13.32;4.95;;;;;;;15.15;100.00;101945.31;5258810;28;20028;-82
2021/06/12 02:29:18;;;;;;;11.00;4.60;;;;;;;15.07;100.00;101944.50;5275467;28;20116;-83
2021/06/12 02:32:02;;;;;;;8.27;4.32;;;;;;;14.97;100.00;101950.06;5275797;28;20032;-82
2021/06/12 02:34:33;;;;;;;11.32;5.72;;;;;;;14.92;100.00;101955.13;5262021;28;20024;-82
2021/06/12 02:37:06;;;;;;;9.65;5.68;;;;;;;14.99;100.00;101961.53;5274841;28;20133;-82
2021/06/12 02:39:37;;;;;;;9.93;5.20;;;;;;;14.94;100.00;101966.63;5275278;28;20052;-82
2021/06/12 02:42:08;;;;;;;13.10;5.93;;;;;;;14.89;100.00;101971.69;5271378;28;20054;-82
2021/06/12 02:44:38;;;;;;;13.25;6.07;;;;;;;14.88;100.00;101978.09;5275716;28;20051;-83
2021/06/12 02:47:12;;;;;;;10.27;5.80;;;;;;;14.94;100.00;101963.91;5276270;28;20020;-82
2021/06/12 02:49:45;;;;;;;14.07;6.50;;;;;;;14.83;100.00;101956.97;5276507;28;20301;-82
2021/06/12 02:52:26;;;;;;;14.55;6.30;;;;;;;14.82;100.00;101965.25;5276164;28;20024;-82
2021/06/12 02:55:01;;;;;;;13.88;6.03;;;;;;;14.79;100.00;101971.81;5276120;28;20031;-82
2021/06/12 02:57:34;;;;;;;14.20;5.95;;;;;;;14.70;100.00;101983.63;5268421;28;20091;-82
2021/06/12 03:00:08;;;;;;;15.32;6.13;;;;;;;14.80;100.00;101997.81;5276565;28;20024;-82
2021/06/12 03:02:43;;;;;;;16.05;6.72;;;;;;;14.76;100.00;101978.44;5275973;28;20018;-82
2021/06/12 03:05:27;;;;;;;;;;;;;;;14.72;100.00;101978.91;5276203;28;20030;-82
2021/06/12 03:07:59;;;;;;;14.23;6.78;;;;;;;14.75;100.00;101975.88;5275958;28;19916;-82
2021/06/12 03:10:33;;;;;;;13.15;6.13;;;;;;;14.66;100.00;101975.03;5275344;28;20016;-82
2021/06/12 03:13:08;;;;;;;15.82;6.97;;;;;;;14.60;100.00;101974.81;5276355;28;20045;-82
2021/06/12 03:15:40;;;;;;;13.90;6.65;;;;;;;14.59;100.00;101975.84;5275527;28;20049;-82
2021/06/12 03:18:11;;;;;;;14.23;6.38;;;;;;;14.54;100.00;101978.19;5276908;28;20043;-82
2021/06/12 03:20:42;;;;;;;14.63;7.35;;;;;;;14.45;100.00;101979.97;5275551;28;20020;-82
2021/06/12 03:23:13;;;;;;;15.43;6.68;;;;;;;14.43;100.00;101973.91;5276031;28;20028;-82
2021/06/12 03:25:44;;;;;;;15.68;6.68;;;;;;;14.36;100.00;101964.78;5278840;28;20090;-82
2021/06/12 03:28:15;;;;;;;17.65;8.05;;;;;;;14.41;100.00;101966.00;5280895;28;20126;-82
2021/06/12 03:30:47;;;;;;;18.95;7.50;;;;;;;14.39;100.00;101959.88;5270677;28;20052;-83
2021/06/12 03:33:18;;;;;;;15.80;7.22;;;;;;;14.35;100.00;101949.59;5279714;28;20530;-82
2021/06/12 03:35:49;;;;;;;13.23;6.80;;;;;;;14.42;100.00;101972.22;5280343;28;20027;-82
2021/06/12 03:38:20;;;;;;;13.88;6.70;;;;;;;14.46;100.00;101973.59;5278973;28;20036;-83
2021/06/12 03:40:51;;;;;;;23.00;9.10;;;;;;;14.50;100.00;101973.09;5279847;28;20028;-82
2021/06/12 03:43:24;;;;;;;14.85;7.18;;;;;;;14.53;100.00;101971.09;5279894;28;20024;-82
2021/06/12 03:45:56;;;;;;;18.90;8.35;;;;;;;14.57;100.00;101961.66;5280563;28;20046;-82
2021/06/12 03:48:27;;;;;;;22.55;9.85;;;;;;;14.58;100.00;101964.19;5261423;28;20035;-83
2021/06/12 03:50:58;;;;;;;17.33;8.27;;;;;;;14.52;100.00;101961.31;5279002;28;20395;-82
2021/06/12 03:53:43;;;;;;;17.42;7.88;;;;;;;14.52;100.00;101964.88;5278074;28;20043;-82
2021/06/12 03:56:16;;;;;;;22.10;9.00;;;;;;;14.50;100.00;101961.47;5278902;28;20024;-82
2021/06/12 03:58:50;;;;;;;25.77;10.63;;;;;;;14.54;100.00;101957.44;5291623;28;20028;-82
2021/06/12 04:01:20;;;;;;;24.30;11.35;;;;;;;14.50;100.00;101959.59;5259333;28;20093;-82
2021/06/12 04:03:51;;;;;;;22.77;10.23;;;;;;;14.56;100.00;101959.97;5278883;28;20015;-82
2021/06/12 04:06:21;;;;;;;22.42;10.15;;;;;;;14.58;100.00;101956.09;5277325;28;20032;-83
2021/06/12 04:08:52;;;;;;;23.02;10.18;;;;;;;14.62;100.00;101954.75;5278572;28;20035;-82
2021/06/12 04:11:23;;;;;;;19.20;9.52;;;;;;;14.66;100.00;101956.13;5277623;28;20265;-82
2021/06/12 04:13:53;;;;;;;25.95;12.15;;;;;;;14.65;100.00;101949.00;5277453;28;20103;-82
2021/06/12 04:16:24;;;;;;;30.02;11.52;;;;;;;14.74;100.00;101966.91;5278056;28;20026;-83
2021/06/12 04:18:54;;;;;;;35.08;13.55;;;;;;;14.80;100.00;101973.50;5276590;28;20031;-82
2021/06/12 04:21:25;;;;;;;32.70;13.27;;;;;;;14.86;100.00;101967.47;5278132;28;20020;-82
2021/06/12 04:23:55;;;;;;;39.83;15.90;;;;;;;15.00;100.00;101965.94;5275357;28;20016;-82
2021/06/12 04:26:26;;;;;;;38.13;17.38;;;;;;;14.99;100.00;101981.31;5275841;28;20478;-83
2021/06/12 04:28:56;;;;;;;41.22;17.75;;;;;;;15.09;100.00;101994.66;5276293;28;20023;-82
2021/06/12 04:31:27;;;;;;;42.20;18.65;;;;;;;15.15;100.00;101998.53;5256747;28;20076;-82
2021/06/12 04:33:57;;;;;;;38.88;17.50;;;;;;;15.26;100.00;101995.50;5257960;28;20441;-82
2021/06/12 04:36:27;;;;;;;41.65;18.73;;;;;;;15.25;100.00;101997.34;5275624;28;20529;-82
2021/06/12 04:38:58;;;;;;;44.10;19.23;;;;;;;15.35;100.00;101993.66;5277037;28;20506;-82
2021/06/12 04:41:28;;;;;;;45.00;18.48;;;;;;;15.37;100.00;101991.63;5274805;28;20048;-82
2021/06/12 04:43:59;;;;;;;43.20;18.20;;;;;;;15.32;100.00;101984.03;5276405;28;20034;-82
2021/06/12 04:46:30;;;;;;;41.33;18.70;;;;;;;15.35;100.00;101983.66;5256464;28;20024;-82
2021/06/12 04:49:00;;;;;;;40.13;17.98;;;;;;;15.43;100.00;101982.84;5257659;28;20085;-82
2021/06/12 04:51:30;;;;;;;44.45;18.50;;;;;;;15.38;100.00;101983.34;5274321;28;20024;-83
2021/06/12 04:54:01;;;;;;;42.10;17.88;;;;;;;15.40;100.00;101988.56;5273554;28;20027;-83
2021/06/12 04:56:32;;;;;;;46.47;21.20;;;;;;;15.40;100.00;101985.88;5275220;28;20028;-82
2021/06/12 04:59:02;;;;;;;42.35;20.38;;;;;;;15.47;100.00;101989.59;5285886;28;20028;-82
2021/06/12 05:01:33;;;;;;;49.55;20.27;;;;;;;15.53;100.00;101995.16;5272911;28;20043;-82
2021/06/12 05:04:03;;;;;;;48.83;22.92;;;;;;;15.57;100.00;102006.50;5274840;28;20016;-82
2021/06/12 05:06:34;;;;;;;46.30;21.75;;;;;;;15.67;100.00;102001.78;5274046;28;20028;-82
2021/06/12 05:09:04;;;;;;;50.03;23.40;;;;;;;15.73;100.00;102002.94;5276943;28;20092;-82
2021/06/12 05:11:35;;;;;;;55.17;23.10;;;;;;;15.82;100.00;101998.38;5258669;28;20031;-82
2021/06/12 05:14:07;;;;;;;57.47;23.35;;;;;;;15.79;100.00;102005.78;5276823;28;20038;-81
2021/06/12 05:16:41;;;;;;;51.70;21.60;;;;;;;15.82;100.00;101993.78;5259029;28;20073;-82
2021/06/12 05:19:12;;;;;;;47.80;21.92;;;;;;;15.94;100.00;102002.38;5276772;28;20016;-81
2021/06/12 05:21:45;;;;;;;54.20;23.63;;;;;;;16.01;100.00;102011.47;5275668;28;20079;-81
2021/06/12 05:24:16;;;;;;;53.40;23.45;;;;;;;16.04;100.00;102011.97;5267975;28;20047;-81
2021/06/12 05:26:46;;;;;;;50.35;22.52;;;;;;;16.06;100.00;102014.50;5270179;28;20102;-81
2021/06/12 05:29:16;;;;;;;47.65;22.17;;;;;;;16.03;100.00;102021.13;5268706;28;20525;-81
2021/06/12 05:31:47;;;;;;;49.42;22.65;;;;;;;15.96;100.00;102024.69;5262162;28;20024;-81
2021/06/12 05:34:17;;;;;;;47.75;22.25;;;;;;;15.99;100.00;102019.78;5269734;28;20055;-81
2021/06/12 05:36:48;;;;;;;47.38;22.55;;;;;;;15.93;100.00;102023.19;5269250;28;20044;-81
2021/06/12 05:39:19;;;;;;;47.03;22.70;;;;;;;15.93;100.00;102034.00;5258813;28;20073;-81
2021/06/12 05:41:49;;;;;;;50.95;24.00;;;;;;;15.97;100.00;102031.81;5272815;28;20031;-82
2021/06/12 05:44:20;;;;;;;48.28;23.10;;;;;;;15.97;100.00;102034.53;5275019;28;20471;-81
2021/06/12 05:46:51;;;;;;;47.25;22.73;;;;;;;15.99;100.00;102035.19;5275825;28;20024;-81
2021/06/12 05:49:21;;;;;;;49.15;24.13;;;;;;;15.99;100.00;102041.44;5277927;28;20047;-82
2021/06/12 05:51:52;;;;;;;51.92;22.75;;;;;;;16.01;100.00;102047.53;5275794;28;20039;-83
2021/06/12 05:54:22;;;;;;;52.35;23.88;;;;;;;16.04;100.00;102043.63;5257225;28;20522;-83
2021/06/12 05:56:55;;;;;;;44.28;21.65;;;;;;;16.05;100.00;102045.31;5274376;28;20456;-83
2021/06/12 05:59:26;;;;;;;56.30;24.27;;;;;;;16.07;100.00;102043.28;5273528;28;20046;-81
2021/06/12 06:01:56;;;;;;;47.45;23.02;;;;;;;16.04;100.00;102041.75;5255867;28;20507;-83
2021/06/12 06:04:27;;;;;;;53.28;22.25;;;;;;;16.08;100.00;102047.69;5273584;28;20023;-83
2021/06/12 06:06:57;;;;;;;52.40;23.20;;;;;;;16.08;100.00;102044.97;5275329;28;20047;-82
2021/06/12 06:09:28;;;;;;;46.60;21.63;;;;;;;16.12;100.00;102054.44;5275034;28;20024;-82
2021/06/12 06:11:58;;;;;;;51.85;24.23;;;;;;;16.14;100.00;102051.56;5274879;28;20228;-83
2021/06/12 06:14:28;;;;;;;49.47;23.10;;;;;;;16.14;100.00;102055.09;5272241;28;20020;-83
2021/06/12 06:16:59;;;;;;;49.10;24.38;;;;;;;16.15;100.00;102064.91;5270689;28;20020;-83
2021/06/12 06:19:29;;;;;;;48.22;23.27;;;;;;;16.31;100.00;102061.31;5273103;28;20048;-83
2021/06/12 06:22:00;;;;;;;46.05;22.48;;;;;;;16.27;100.00;102063.53;5273532;28;20097;-81
2021/06/12 06:24:30;;;;;;;50.30;22.83;;;;;;;16.19;100.00;102062.69;5272866;28;20065;-81
2021/06/12 06:27:01;;;;;;;50.80;23.75;;;;;;;16.15;100.00;102062.19;5254292;28;20035;-83
2021/06/12 06:29:31;;;;;;;49.78;22.77;;;;;;;16.24;100.00;102072.00;5273536;28;20495;-83
2021/06/12 06:32:03;;;;;;;52.60;23.58;;;;;;;16.21;100.00;102069.63;5272437;28;20093;-83
2021/06/12 06:34:34;;;;;;;55.63;23.92;;;;;;;16.20;100.00;102072.50;5270890;28;20024;-83
2021/06/12 06:37:05;;;;;;;51.80;24.17;;;;;;;16.25;100.00;102072.84;5269344;28;20043;-83
2021/06/12 06:39:36;;;;;;;53.15;24.48;;;;;;;16.24;100.00;102068.44;5267689;28;20028;-83
2021/06/12 06:42:06;;;;;;;55.38;24.83;;;;;;;16.29;100.00;102080.44;5264264;28;20035;-82
2021/06/12 06:44:37;;;;;;;52.30;24.42;;;;;;;16.35;100.00;102078.91;5272153;28;20387;-83
2021/06/12 06:47:08;;;;;;;54.13;23.52;;;;;;;16.46;100.00;102081.22;5270794;28;20024;-83
2021/06/12 06:49:39;;;;;;;52.35;24.55;;;;;;;16.49;100.00;102066.50;5252512;28;20458;-82
2021/06/12 06:52:10;;;;;;;50.45;24.05;;;;;;;16.56;100.00;102075.59;5236275;28;20063;-82
2021/06/12 06:54:42;;;;;;;51.30;25.75;;;;;;;16.60;100.00;102074.22;5265989;28;20107;-84
2021/06/12 06:57:13;;;;;;;48.58;25.15;;;;;;;16.68;100.00;102073.34;5254030;28;20023;-83
2021/06/12 06:59:45;;;;;;;52.08;26.35;;;;;;;16.74;100.00;102072.69;5291819;28;20448;-83
2021/06/12 07:02:18;;;;;;;53.17;26.10;;;;;;;16.79;100.00;102079.25;5263528;28;20027;-83
2021/06/12 07:04:52;;;;;;;56.05;26.90;;;;;;;16.88;100.00;102076.50;5264224;28;20028;-82
2021/06/12 07:07:25;;;;;;;61.75;26.52;;;;;;;16.95;100.00;102086.44;5279385;28;20028;-83
2021/06/12 07:09:56;;;;;;;57.75;27.40;;;;;;;16.82;100.00;102072.66;5257104;28;20039;-82
2021/06/12 07:12:31;;;;;;;56.03;27.77;;;;;;;16.90;100.00;102086.13;5280152;28;20020;-83
2021/06/12 07:15:03;;;;;;;59.15;28.65;;;;;;;16.91;100.00;102084.25;5264158;28;20032;-83
2021/06/12 07:17:34;;;;;;;57.78;29.63;;;;;;;16.94;100.00;102084.75;5281357;28;20122;-83
2021/06/12 07:20:09;;;;;;;57.67;27.77;;;;;;;16.92;100.00;102083.22;5263165;28;20084;-83
2021/06/12 07:22:39;;;;;;;58.45;29.33;;;;;;;16.81;100.00;102073.66;5282223;28;20040;-82
2021/06/12 07:25:10;;;;;;;59.95;28.70;;;;;;;16.77;100.00;102089.44;5286173;28;20043;-82
2021/06/12 07:27:41;;;;;;;56.15;28.48;;;;;;;16.77;100.00;102097.56;5288320;28;20043;-83
2021/06/12 07:30:12;;;;;;;62.92;29.50;;;;;;;16.68;100.00;102087.75;5289241;28;20038;-82
2021/06/12 07:32:43;;;;;;;72.47;32.10;;;;;;;16.54;100.00;102081.19;5291185;28;20036;-83
2021/06/12 07:35:14;;;;;;;65.55;31.23;;;;;;;16.51;100.00;102100.50;5291692;28;20012;-83
2021/06/12 07:37:45;;;;;;;70.05;32.70;;;;;;;16.56;100.00;102098.09;5289232;28;20549;-83
2021/06/12 07:40:16;;;;;;;62.35;29.85;;;;;;;16.57;100.00;102113.38;5268537;28;20081;-82
2021/06/12 07:42:47;;;;;;;69.47;31.38;;;;;;;16.52;100.00;102109.50;5283520;28;20020;-83
2021/06/12 07:45:18;;;;;;;70.85;33.40;;;;;;;16.54;100.00;102110.16;5280415;28;20030;-84
2021/06/12 07:47:49;;;;;;;67.68;33.05;;;;;;;16.63;100.00;102119.09;5278505;28;20020;-81
2021/06/12 07:50:20;;;;;;;73.68;32.17;;;;;;;16.64;100.00;102110.78;5270784;28;20030;-82
2021/06/12 07:52:51;;;;;;;70.00;31.85;;;;;;;16.68;100.00;102114.84;5270432;28;20046;-82
2021/06/12 07:55:22;;;;;;;64.40;32.00;;;;;;;16.89;100.00;102119.69;5269942;28;20075;-82
2021/06/12 07:57:52;;;;;;;68.75;33.65;;;;;;;16.96;100.00;102111.69;5284856;28;20039;-82
2021/06/12 08:00:23;;;;;;;68.78;33.03;;;;;;;16.90;100.00;102110.53;5266432;28;20102;-82
2021/06/12 08:02:54;;;;;;;67.53;32.85;;;;;;;17.03;100.00;102118.94;5266098;28;20030;-81
2021/06/12 08:05:26;;;;;;;61.15;29.55;;;;;;;17.19;100.00;102117.16;5265431;28;20320;-83
2021/06/12 08:07:56;;;;;;;68.05;30.75;;;;;;;17.18;100.00;102110.03;5265885;28;20031;-82
2021/06/12 08:10:27;;;;;;;59.58;30.10;;;;;;;17.25;100.00;102109.13;5265196;28;20402;-83
2021/06/12 08:12:58;;;;;;;61.58;29.02;;;;;;;17.38;100.00;102107.72;5264561;28;20043;-83
2021/06/12 08:15:29;;;;;;;58.60;28.55;;;;;;;17.35;100.00;102108.91;5265040;28;20024;-83
2021/06/12 08:18:00;;;;;;;58.80;29.13;;;;;;;17.48;100.00;102119.16;5264889;28;20042;-83
2021/06/12 08:20:31;;;;;;;60.97;29.75;;;;;;;17.52;100.00;102112.31;5263989;28;20028;-83
2021/06/12 08:23:02;;;;;;;50.95;27.65;;;;;;;17.66;100.00;102110.69;5264708;28;20054;-82
2021/06/12 08:25:33;;;;;;;61.25;30.27;;;;;;;18.00;100.00;102110.25;5263771;28;20024;-82
2021/06/12 08:28:05;;;;;;;59.90;30.30;;;;;;;18.24;100.00;102120.88;5264815;28;20016;-82
2021/06/12 08:30:36;;;;;;;46.80;26.05;;;;;;;18.51;100.00;102119.38;5257463;28;20521;-83
2021/06/12 08:33:10;;;;;;;50.65;28.70;;;;;;;18.21;100.00;102113.09;5265064;28;20021;-83
2021/06/12 08:35:44;;;;;;;53.00;28.73;;;;;;;18.42;100.00;102119.66;5274547;28;20008;-82
2021/06/12 08:38:15;;;;;;;57.53;28.80;;;;;;;18.48;100.00;102121.66;5276920;28;20046;-82
2021/06/12 08:40:48;;;;;;;54.45;27.13;;;;;;;18.64;100.00;102116.00;5256004;28;20137;-81
2021/06/12 08:43:21;;;;;;;48.47;26.75;;;;;;;18.75;100.00;102117.44;5275133;28;20009;-81
2021/06/12 08:46:13;;;;;;;47.45;26.63;;;;;;;19.03;100.00;102114.88;5274790;28;20024;-82
2021/06/12 08:48:44;;;;;;;47.67;26.33;;;;;;;19.17;100.00;102122.13;5271825;28;20024;-82
2021/06/12 08:51:15;;;;;;;52.08;26.70;;;;;;;19.21;100.00;102112.53;5274383;28;20024;-82
2021/06/12 08:53:48;;;;;;;48.25;28.10;;;;;;;19.23;100.00;102115.94;5275889;28;20050;-82
2021/06/12 08:56:19;;;;;;;46.95;25.52;;;;;;;19.29;100.00;102115.16;5258553;28;20081;-82
2021/06/12 08:58:50;;;;;;;41.00;24.92;;;;;;;19.21;100.00;102130.75;5288465;28;20024;-82
2021/06/12 09:01:22;;;;;;;45.90;24.60;;;;;;;19.32;100.00;102131.06;5253832;28;20097;-82
2021/06/12 09:03:52;;;;;;;46.30;25.00;;;;;;;19.25;100.00;102126.59;5271833;28;20024;-83
2021/06/12 09:06:27;;;;;;;43.97;25.40;;;;;;;19.16;100.00;102131.31;5272107;28;20521;-82
2021/06/12 09:08:58;;;;;;;;;;;;;;;19.06;100.00;102139.78;5237791;28;20059;-82
2021/06/12 09:11:35;;;;;;;50.40;26.88;;;;;;;19.04;100.00;102138.31;5270430;28;19908;-82
2021/06/12 09:14:07;;;;;;;49.38;26.55;;;;;;;19.11;100.00;102144.66;5271353;28;20028;-82
2021/06/12 09:16:40;;;;;;;48.10;26.73;;;;;;;19.16;100.00;102136.75;5258894;28;20533;-82
2021/06/12 09:19:21;;;;;;;47.53;27.02;;;;;;;19.01;100.00;102135.94;5276587;28;20083;-82
2021/06/12 09:22:00;;;;;;;51.72;28.05;;;;;;;18.97;100.00;102134.63;5279471;28;20032;-82
2021/06/12 09:24:35;;;;;;;47.95;26.55;;;;;;;19.00;100.00;102134.28;5280169;28;20031;-82
2021/06/12 09:27:13;;;;;;;45.72;26.08;;;;;;;19.35;100.00;102140.75;5279454;28;20028;-82
2021/06/12 09:29:46;;;;;;;45.15;25.85;;;;;;;19.56;100.00;102138.03;5280119;28;20031;-82
2021/06/12 09:32:23;;;;;;;61.72;28.65;;;;;;;19.55;100.00;102140.94;5261972;28;20027;-82
2021/06/12 09:35:07;;;;;;;50.92;26.85;;;;;;;19.77;100.00;102136.34;5280403;28;20024;-81
2021/06/12 09:37:37;;;;;;;50.92;28.02;;;;;;;19.77;100.00;102139.91;5278942;28;20091;-82
2021/06/12 09:40:13;;;;;;;50.20;27.23;;;;;;;20.05;100.00;102148.13;5258466;28;20083;-81
2021/06/12 09:42:45;;;;;;;53.35;28.40;;;;;;;20.07;100.00;102148.75;5255753;28;20024;-82
2021/06/12 09:45:22;;;;;;;47.25;27.13;;;;;;;20.10;100.00;102153.00;5254085;28;20379;-81
2021/06/12 09:48:14;;;;;;;45.65;27.35;;;;;;;20.18;100.00;102158.28;5273922;28;20027;-81
2021/06/12 09:50:47;;;;;;;48.80;28.15;;;;;;;20.07;100.00;102161.53;5263624;28;20031;-82
2021/06/12 09:53:37;;;;;;;45.92;25.27;;;;;;;20.17;100.00;102149.25;5274784;28;20270;-82
2021/06/12 09:56:11;;;;;;;48.70;27.23;;;;;;;20.00;100.00;102157.94;5249444;28;20407;-84
2021/06/12 09:58:42;;;;;;;47.97;26.57;;;;;;;20.21;100.00;102157.88;5278876;28;20035;-83
2021/06/12 10:01:15;;;;;;;50.15;25.10;;;;;;;20.65;100.00;102170.38;5265393;28;20039;-83
2021/06/12 10:03:47;;;;;;;48.65;25.35;;;;;;;20.67;100.00;102171.00;5264815;28;20020;-83
2021/06/12 10:06:25;;;;;;;52.95;26.80;;;;;;;20.74;100.00;102169.19;5247563;28;20548;-85
2021/06/12 10:08:55;;;;;;;50.85;26.20;;;;;;;20.74;100.00;102165.59;5264845;28;20020;-83
2021/06/12 10:11:27;;;;;;;49.97;26.42;;;;;;;20.87;100.00;102166.50;5265480;28;20024;-83
2021/06/12 10:13:58;;;;;;;49.75;26.77;;;;;;;21.05;100.00;102174.16;5246582;28;20254;-83
2021/06/12 10:16:31;;;;;;;48.45;25.38;;;;;;;21.16;100.00;102161.78;5265121;28;20028;-83
2021/06/12 10:19:04;;;;;;;45.95;24.70;;;;;;;21.65;100.00;102166.16;5265519;28;20024;-83
2021/06/12 10:21:35;;;;;;;48.00;25.33;;;;;;;22.08;100.00;102161.13;5252476;28;20570;-83
2021/06/12 10:24:07;;;;;;;46.88;24.67;;;;;;;22.41;100.00;102160.28;5265324;28;20026;-83
2021/06/12 10:26:38;;;;;;;43.55;23.40;;;;;;;22.81;100.00;102161.03;5265458;28;20020;-83
2021/06/12 10:29:10;;;;;;;40.80;22.23;;;;;;;23.11;100.00;102166.00;5265201;28;20031;-84
2021/06/12 10:31:42;;;;;;;38.20;21.10;;;;;;;23.34;100.00;102158.06;5270688;28;20498;-82
2021/06/12 10:34:14;;;;;;;44.80;23.60;;;;;;;22.94;100.00;102168.34;5271829;28;20095;-82
2021/06/12 10:37:07;;;;;;;38.80;21.88;;;;;;;22.59;100.00;102165.06;5273503;28;20052;-81
2021/06/12 10:39:40;;;;;;;47.45;24.38;;;;;;;22.19;100.00;102156.97;5241642;28;20287;-83
2021/06/12 10:42:20;;;;;;;43.65;24.85;;;;;;;21.93;100.00;102150.41;5275850;28;20326;-82
2021/06/12 10:44:53;;;;;;;46.00;24.92;;;;;;;21.53;100.00;102167.81;5256129;28;20024;-81
2021/06/12 10:47:42;;;;;;;37.67;23.00;;;;;;;21.28;100.00;102157.41;5280323;28;20039;-82
2021/06/12 10:50:27;;;;;;;38.40;21.80;;;;;;;21.14;100.00;102166.63;5270239;28;20032;-82
2021/06/12 10:53:16;;;;;;;;;;;;;;;21.29;100.00;102159.13;5271531;28;20491;-82
2021/06/12 10:55:52;;;;;;;41.70;15.43;;;;;;;21.91;100.00;102160.72;5257328;28;19971;-82
2021/06/12 10:58:29;;;;;;;23.98;14.85;;;;;;;21.94;100.00;102157.56;5279518;28;20639;-82
2021/06/12 11:01:05;;;;;;;23.48;13.50;;;;;;;22.31;100.00;102163.47;5265935;28;20113;-82
2021/06/12 11:04:01;;;;;;;20.98;13.25;;;;;;;22.50;100.00;102156.28;5273744;28;20038;-82
2021/06/12 11:06:50;;;;;;;20.83;12.82;;;;;;;23.07;100.00;102156.53;5290118;28;20025;-82
2021/06/12 11:09:34;;;;;;;21.38;12.57;;;;;;;23.27;100.00;102149.88;5289521;28;20008;-81
2021/06/12 11:12:25;;;;;;;20.13;13.13;;;;;;;23.15;100.00;102159.88;5272734;28;20157;-82
2021/06/12 11:14:59;;;;;;;21.13;11.52;;;;;;;22.92;100.00;102159.53;5271475;28;20398;-82
2021/06/12 11:17:29;;;;;;;14.80;10.98;;;;;;;22.70;100.00;102159.81;5271186;28;20026;-82
2021/06/12 11:20:00;;;;;;;13.68;10.05;;;;;;;22.54;100.00;102171.22;5270185;28;20028;-83
2021/06/12 11:22:51;;;;;;;16.83;10.27;;;;;;;22.41;100.00;102161.13;5272076;28;20028;-82
2021/06/12 11:25:24;;;;;;;17.80;10.65;;;;;;;22.35;100.00;102163.88;5272195;28;20028;-84
2021/06/12 11:28:17;;;;;;;15.20;8.05;;;;;;;22.16;100.00;102169.16;5271969;28;20035;-82
2021/06/12 11:30:49;;;;;;;9.25;5.40;;;;;;;21.99;100.00;102162.41;5261503;28;20043;-81
2021/06/12 11:33:21;;;;;;;10.38;5.70;;;;;;;21.80;100.00;102157.78;5281755;28;20039;-81